Time;durP1;ratioP1;P1;durP2;ratioP2;P2;SDS_P1;SDS_P2;PMS_P1;PMS_P2;Temp;Humidity;BMP_temperature;BMP_pressure;BME280_temperature;BME280_humidity;BME280_pressure;Samples;Min_cycle;Max_cycle;Signal;HPM_P1;HPM_P2
2021/10/24 00:11:41;;;;;;;;;23.25;19.00;;;;;;;;4811295;29;45989;-80
2021/10/24 00:17:40;;;;;;;;;22.75;20.00;;;;;;;;4703382;30;45688;-80
2021/10/24 00:36:17;;;;;;;;;17.75;15.50;;;;;;;;5226514;22;45560;-79
2021/10/24 00:38:42;;;;;;;;;18.50;16.75;;;;;;;;5014698;28;46259;-79
2021/10/24 00:41:07;;;;;;;;;16.75;14.75;;;;;;;;5008964;28;50844;-79
2021/10/24 00:43:35;;;;;;;;;21.00;15.25;;;;;;;;5010377;28;45721;-79
2021/10/24 00:46:00;;;;;;;;;19.25;13.75;;;;;;;;5019012;28;45566;-79
2021/10/24 00:48:28;;;;;;;;;15.25;13.00;;;;;;;;5012294;28;45511;-78
2021/10/24 00:50:58;;;;;;;;;18.50;16.00;;;;;;;;5011061;28;47020;-79
2021/10/24 00:53:24;;;;;;;;;21.00;17.25;;;;;;;;5021755;28;45709;-78
2021/10/24 00:55:52;;;;;;;;;19.50;14.00;;;;;;;;5013672;28;45654;-78
2021/10/24 00:58:25;;;;;;;;;20.50;17.00;;;;;;;;5013101;28;46436;-79
2021/10/24 01:00:57;;;;;;;;;18.50;14.75;;;;;;;;5019321;28;45439;-79
2021/10/24 01:03:31;;;;;;;;;20.25;15.00;;;;;;;;5013783;28;45608;-79
2021/10/24 01:09:39;;;;;;;;;18.00;15.25;;;;;;;;4978961;28;45961;-79
2021/10/24 01:44:59;;;;;;;;;17.25;12.25;;;;;;;;4874565;28;45591;-79
2021/10/24 01:56:55;;;;;;;;;15.75;13.00;;;;;;;;1029909;22;47892;-80
2021/10/24 01:59:29;;;;;;;;;14.75;13.75;;;;;;;;4976999;28;46087;-80
2021/10/24 02:02:07;;;;;;;;;;;;;;;;;;;;;
2021/10/24 02:14:15;;;;;;;;;10.00;7.00;;;;;;;;4812626;29;45521;-79
2021/10/24 02:17:02;;;;;;;;;13.00;10.75;;;;;;;;4842200;28;45838;-80
2021/10/24 02:22:43;;;;;;;;;11.50;10.25;;;;;;;;4772425;29;45988;-79
2021/10/24 02:35:27;;;;;;;;;13.50;11.00;;;;;;;;4771265;29;45870;-83
2021/10/24 02:44:43;;;;;;;;;;;;;;;;;;;;;
2021/10/24 02:47:45;;;;;;;;;;;;;;;;;;;;;
2021/10/24 02:50:40;;;;;;;;;;;;;;;;;;;;;
2021/10/24 02:56:30;;;;;;;;;15.25;12.25;;;;;;;;4866363;29;45796;-81
2021/10/24 02:59:34;;;;;;;;;18.25;13.00;;;;;;;;4872204;28;45760;-79
2021/10/24 03:18:49;;;;;;;;;13.00;10.25;;;;;;;;4801760;29;45423;-79
2021/10/24 03:51:13;;;;;;;;;13.00;12.00;;;;;;;;6300896;22;45615;-79
2021/10/24 03:57:11;;;;;;;;;9.75;5.25;;;;;;;;6295091;22;45463;-78
2021/10/24 04:00:38;;;;;;;;;12.00;9.25;;;;;;;;6300133;22;45768;-79
2021/10/24 04:03:35;;;;;;;;;;;;;;;;;;;;;
2021/10/24 04:09:46;;;;;;;;;11.25;9.25;;;;;;;;6171166;23;45574;-80
2021/10/24 04:15:27;;;;;;;;;7.75;7.75;;;;;;;;6079201;23;45747;-80
2021/10/24 04:26:43;;;;;;;;;13.75;11.25;;;;;;;;6241146;22;45807;-80
2021/10/24 04:41:39;;;;;;;;;10.50;10.00;;;;;;;;5995579;23;45375;-81
2021/10/24 04:44:04;;;;;;;;;8.75;8.75;;;;;;;;5994198;23;45413;-80
2021/10/24 04:46:29;;;;;;;;;11.00;8.00;;;;;;;;6220159;22;45666;-80
2021/10/24 04:48:58;;;;;;;;;13.33;9.33;;;;;;;;6261160;22;47860;-80
2021/10/24 04:51:23;;;;;;;;;10.25;9.00;;;;;;;;6265079;22;46022;-80
2021/10/24 05:00:10;;;;;;;;;11.00;9.75;;;;;;;;6323286;22;45943;-80
2021/10/24 05:02:36;;;;;;;;;12.75;9.00;;;;;;;;6326547;22;45283;-80
2021/10/24 05:05:02;;;;;;;;;7.75;7.75;;;;;;;;6297103;22;45492;-80
2021/10/24 05:07:27;;;;;;;;;11.75;10.00;;;;;;;;6324757;22;45216;-81
2021/10/24 05:16:19;;;;;;;;;;;;;;;;;;;;;
2021/10/24 05:22:12;;;;;;;;;10.00;10.00;;;;;;;;6329651;22;45718;-80
2021/10/24 05:25:05;;;;;;;;;9.75;9.00;;;;;;;;6328687;22;45229;-81
2021/10/24 05:40:32;;;;;;;;;;;;;;;;;;;;;
2021/10/24 05:46:11;;;;;;;;;8.50;8.00;;;;;;;;6184281;22;45463;-80
2021/10/24 05:49:10;;;;;;;;;;;;;;;;;;;;;
2021/10/24 06:05:11;;;;;;;;;9.50;8.50;;;;;;;;6019442;23;45530;-80
2021/10/24 06:14:25;;;;;;;;;;;;;;;;;;;;;
2021/10/24 06:20:13;;;;;;;;;16.50;12.50;;;;;;;;5993664;23;45461;-79
2021/10/24 06:29:03;;;;;;;;;;;;;;;;;;;;;
2021/10/24 06:31:42;;;;;;;;;12.50;11.75;;;;;;;;6034995;23;71113;-79
2021/10/24 06:59:49;;;;;;;;;19.00;14.50;;;;;;;;6109082;23;45659;-79
2021/10/24 07:05:52;;;;;;;;;11.75;11.75;;;;;;;;6107030;23;45360;-80
2021/10/24 07:14:49;;;;;;;;;9.50;9.25;;;;;;;;5959877;23;45684;-79
2021/10/24 07:17:36;;;;;;;;;15.75;12.75;;;;;;;;5963830;23;45315;-79
2021/10/24 07:20:35;;;;;;;;;15.25;9.25;;;;;;;;5977760;23;46364;-80
2021/10/24 07:29:36;;;;;;;;;;;;;;;;;;;;;
2021/10/24 07:53:15;;;;;;;;;17.50;15.00;;;;;;;;6264109;22;45673;-79
2021/10/24 07:55:40;;;;;;;;;13.50;11.25;;;;;;;;6264696;22;47020;-78
2021/10/24 08:05:02;;;;;;;;;18.00;18.00;;;;;;;;6294378;22;45895;-80
2021/10/24 08:07:27;;;;;;;;;14.50;10.25;;;;;;;;6265979;22;47026;-82
2021/10/24 08:09:52;;;;;;;;;10.00;9.67;;;;;;;;6294936;22;45514;-80
2021/10/24 08:12:18;;;;;;;;;11.50;9.25;;;;;;;;6293553;22;45405;-81
2021/10/24 08:14:43;;;;;;;;;13.00;13.00;;;;;;;;6265978;22;45466;-80
2021/10/24 08:17:08;;;;;;;;;9.00;6.67;;;;;;;;6295971;22;45617;-80
2021/10/24 08:19:34;;;;;;;;;13.00;10.00;;;;;;;;6297796;22;45969;-93
2021/10/24 08:25:13;;;;;;;;;10.00;10.00;;;;;;;;6250199;22;45709;-93
2021/10/24 08:28:38;;;;;;;;;13.75;10.50;;;;;;;;6282285;22;47528;-93
2021/10/24 08:33:28;;;;;;;;;11.75;10.50;;;;;;;;6232947;22;45811;-81
2021/10/24 08:39:35;;;;;;;;;14.00;13.75;;;;;;;;6068730;23;45672;-80
2021/10/24 09:00:37;;;;;;;;;12.75;9.00;;;;;;;;6150156;23;45462;-80
2021/10/24 09:06:11;;;;;;;;;18.00;9.75;;;;;;;;6084167;23;45529;-79
2021/10/24 09:08:37;;;;;;;;;11.75;10.00;;;;;;;;6082733;23;45253;-78
2021/10/24 09:11:23;;;;;;;;;;;;;;;;;;;;;
2021/10/24 09:13:50;;;;;;;;;10.25;10.00;;;;;;;;6060280;23;74960;-81
2021/10/24 09:37:05;;;;;;;;;11.00;9.00;;;;;;;;6275279;22;45704;-82
2021/10/24 09:39:35;;;;;;;;;9.50;8.25;;;;;;;;6256237;22;45419;-81
2021/10/24 09:42:36;;;;;;;;;9.50;8.25;;;;;;;;6267092;22;46032;-81
2021/10/24 09:47:37;;;;;;;;;10.00;9.25;;;;;;;;6286614;22;47191;-80
2021/10/24 09:50:12;;;;;;;;;11.50;10.00;;;;;;;;6299995;22;45265;-80
2021/10/24 10:04:00;;;;;;;;;8.25;8.25;;;;;;;;6078151;23;45539;-82
2021/10/24 10:09:01;;;;;;;;;11.75;10.75;;;;;;;;6279352;22;46161;-86
2021/10/24 10:11:47;;;;;;;;;14.75;8.00;;;;;;;;6262286;22;45489;-83
2021/10/24 10:14:26;;;;;;;;;16.75;11.00;;;;;;;;6231666;22;45687;-84
2021/10/24 10:16:53;;;;;;;;;10.75;10.00;;;;;;;;6260205;22;46040;-83
2021/10/24 10:19:27;;;;;;;;;12.50;11.00;;;;;;;;6260984;22;45405;-83
2021/10/24 10:21:53;;;;;;;;;15.50;11.50;;;;;;;;6263291;22;45370;-83
2021/10/24 10:24:55;;;;;;;;;12.00;10.50;;;;;;;;6261071;22;45488;-85
2021/10/24 10:28:10;;;;;;;;;11.75;7.50;;;;;;;;6261967;22;47440;-85
2021/10/24 10:30:39;;;;;;;;;12.25;10.75;;;;;;;;6260685;22;45657;-84
2021/10/24 10:33:24;;;;;;;;;12.25;11.25;;;;;;;;6262162;22;45425;-85
2021/10/24 10:36:03;;;;;;;;;15.75;12.00;;;;;;;;6260606;22;45619;-84
2021/10/24 10:38:41;;;;;;;;;14.00;10.50;;;;;;;;6261631;22;46999;-85
2021/10/24 10:41:11;;;;;;;;;12.00;11.25;;;;;;;;6263394;22;45538;-84
2021/10/24 10:43:36;;;;;;;;;14.25;10.25;;;;;;;;6261759;22;45580;-83
2021/10/24 10:46:06;;;;;;;;;10.75;9.25;;;;;;;;6257217;22;45563;-82
2021/10/24 10:49:13;;;;;;;;;;;;;;;;;;;;;
2021/10/24 10:51:42;;;;;;;;;14.25;10.75;;;;;;;;6242270;22;72266;-89
2021/10/24 10:54:17;;;;;;;;;;;;;;;;;;;;;
2021/10/24 10:56:53;;;;;;;;;11.25;11.25;;;;;;;;6261105;22;71343;-85
2021/10/24 10:59:55;;;;;;;;;12.00;10.75;;;;;;;;6262577;22;46072;-81
2021/10/24 11:02:45;;;;;;;;;15.50;10.25;;;;;;;;6263341;22;45580;-81
2021/10/24 11:05:10;;;;;;;;;7.00;7.00;;;;;;;;6260383;22;45359;-81
2021/10/24 11:07:37;;;;;;;;;12.67;10.00;;;;;;;;6258299;22;45787;-83
2021/10/24 11:13:31;;;;;;;;;11.25;10.00;;;;;;;;6163623;23;45772;-81
2021/10/24 11:16:16;;;;;;;;;11.75;11.50;;;;;;;;6138262;23;45751;-78
2021/10/24 11:18:42;;;;;;;;;15.25;12.00;;;;;;;;6139739;22;45468;-80
2021/10/24 11:21:07;;;;;;;;;16.00;12.00;;;;;;;;6112120;23;47397;-79
2021/10/24 11:23:32;;;;;;;;;17.00;13.50;;;;;;;;6111601;23;45754;-78
2021/10/24 11:26:23;;;;;;;;;13.25;10.00;;;;;;;;6140846;23;45386;-78
2021/10/24 11:28:47;;;;;;;;;20.00;16.25;;;;;;;;6138215;23;45247;-77
2021/10/24 11:31:17;;;;;;;;;11.00;8.75;;;;;;;;6137786;23;45399;-80
2021/10/24 11:33:43;;;;;;;;;15.00;14.00;;;;;;;;6136667;23;45578;-79
2021/10/24 11:36:08;;;;;;;;;13.75;12.25;;;;;;;;6107675;23;46364;-84
2021/10/24 11:38:34;;;;;;;;;15.25;13.25;;;;;;;;6137744;23;45422;-77
2021/10/24 11:41:00;;;;;;;;;11.75;11.75;;;;;;;;6133961;23;46590;-80
2021/10/24 11:43:26;;;;;;;;;17.00;13.25;;;;;;;;6110813;23;45472;-80
2021/10/24 11:45:55;;;;;;;;;11.50;10.75;;;;;;;;6112718;23;45437;-82
2021/10/24 11:48:24;;;;;;;;;17.50;12.00;;;;;;;;6135798;23;45564;-81
2021/10/24 11:50:52;;;;;;;;;12.25;11.00;;;;;;;;6162548;23;45468;-81
2021/10/24 11:53:21;;;;;;;;;12.50;11.50;;;;;;;;6231702;22;45629;-81
2021/10/24 11:56:05;;;;;;;;;20.25;13.00;;;;;;;;6259655;22;45664;-84
2021/10/24 11:59:11;;;;;;;;;13.25;12.75;;;;;;;;6260477;22;45588;-82
2021/10/24 12:01:45;;;;;;;;;11.25;11.00;;;;;;;;6259577;22;46797;-82
2021/10/24 12:04:31;;;;;;;;;11.75;11.50;;;;;;;;6262111;22;45379;-81
2021/10/24 12:06:58;;;;;;;;;11.25;11.25;;;;;;;;6260418;22;45463;-81
2021/10/24 12:09:42;;;;;;;;;16.00;10.25;;;;;;;;6257634;22;45517;-81
2021/10/24 12:12:41;;;;;;;;;14.00;11.50;;;;;;;;6257538;22;47483;-83
2021/10/24 12:15:15;;;;;;;;;13.50;11.00;;;;;;;;6254864;22;45490;-82
2021/10/24 12:21:03;;;;;;;;;10.25;10.25;;;;;;;;6045650;23;45968;-81
2021/10/24 12:23:30;;;;;;;;;11.75;10.75;;;;;;;;6047954;23;46777;-82
2021/10/24 12:25:59;;;;;;;;;11.00;9.00;;;;;;;;6049845;23;45460;-81
2021/10/24 12:28:33;;;;;;;;;14.00;12.00;;;;;;;;6051050;23;45319;-82
2021/10/24 12:31:34;;;;;;;;;16.00;11.50;;;;;;;;6048655;23;45745;-83
2021/10/24 12:34:50;;;;;;;;;12.00;11.00;;;;;;;;6049863;23;48129;-82
2021/10/24 12:47:10;;;;;;;;;10.75;10.25;;;;;;;;5930605;23;46371;-78
2021/10/24 12:49:41;;;;;;;;;13.00;11.25;;;;;;;;5933763;23;45797;-79
2021/10/24 12:52:12;;;;;;;;;12.25;12.25;;;;;;;;5932619;23;45592;-82
2021/10/24 12:54:43;;;;;;;;;13.75;13.00;;;;;;;;5985069;23;45459;-84
2021/10/24 12:57:09;;;;;;;;;10.75;8.25;;;;;;;;6050016;23;45423;-83
2021/10/24 12:59:58;;;;;;;;;12.75;9.50;;;;;;;;6079545;23;45409;-81
2021/10/24 13:05:42;;;;;;;;;10.50;8.50;;;;;;;;6094220;23;45676;-90
2021/10/24 13:08:07;;;;;;;;;8.00;8.00;;;;;;;;6079286;23;46458;-84
2021/10/24 13:10:32;;;;;;;;;14.25;14.25;;;;;;;;6106457;23;45501;-86
2021/10/24 13:24:20;;;;;;;;;15.75;12.25;;;;;;;;6319861;22;45954;-89
2021/10/24 13:26:49;;;;;;;;;12.00;9.75;;;;;;;;6303127;22;45632;-90
2021/10/24 13:29:15;;;;;;;;;11.00;11.00;;;;;;;;6330915;22;46246;-93
2021/10/24 13:31:43;;;;;;;;;12.50;9.75;;;;;;;;6332607;22;45569;-90
2021/10/24 13:34:08;;;;;;;;;10.75;9.75;;;;;;;;6331456;22;45567;-89
2021/10/24 13:36:34;;;;;;;;;13.25;9.50;;;;;;;;6332229;22;45486;-90
2021/10/24 13:39:00;;;;;;;;;16.75;11.00;;;;;;;;6330728;22;45594;-90
2021/10/24 13:41:25;;;;;;;;;12.00;8.75;;;;;;;;6331534;22;45480;-92
2021/10/24 13:43:51;;;;;;;;;14.50;9.00;;;;;;;;6330544;22;45643;-90
2021/10/24 13:46:17;;;;;;;;;9.75;9.75;;;;;;;;6303824;22;45517;-89
2021/10/24 13:48:51;;;;;;;;;12.00;8.00;;;;;;;;6301581;22;48203;-91
2021/10/24 13:51:16;;;;;;;;;15.25;8.50;;;;;;;;6330823;22;45941;-90
2021/10/24 13:53:42;;;;;;;;;8.00;8.00;;;;;;;;6332839;22;45703;-91
2021/10/24 13:56:07;;;;;;;;;9.25;7.25;;;;;;;;6331294;22;45413;-89
2021/10/24 13:58:33;;;;;;;;;8.75;8.75;;;;;;;;6331155;22;47402;-91
2021/10/24 14:00:58;;;;;;;;;12.00;8.50;;;;;;;;6332838;22;45414;-91
2021/10/24 14:03:25;;;;;;;;;8.25;8.00;;;;;;;;6331510;22;45464;-90
2021/10/24 14:05:50;;;;;;;;;11.75;9.00;;;;;;;;6334426;22;45571;-89
2021/10/24 14:08:16;;;;;;;;;8.25;8.00;;;;;;;;6301492;22;47876;-89
2021/10/24 14:10:42;;;;;;;;;10.00;7.00;;;;;;;;6331078;22;45339;-90
2021/10/24 14:13:08;;;;;;;;;13.00;8.00;;;;;;;;6332704;22;45622;-92
2021/10/24 14:15:33;;;;;;;;;12.50;7.00;;;;;;;;6286483;22;45261;-89
2021/10/24 14:18:00;;;;;;;;;8.67;8.33;;;;;;;;6332105;22;45663;-89
2021/10/24 14:20:25;;;;;;;;;7.25;7.00;;;;;;;;6332971;22;45350;-91
2021/10/24 14:22:51;;;;;;;;;8.25;6.25;;;;;;;;6339232;22;45512;-91
2021/10/24 14:25:16;;;;;;;;;11.00;7.25;;;;;;;;6303178;22;45436;-90
2021/10/24 14:27:49;;;;;;;;;10.00;8.25;;;;;;;;6274764;22;47805;-90
2021/10/24 14:30:41;;;;;;;;;10.50;7.75;;;;;;;;6301442;22;45328;-90
2021/10/24 14:33:06;;;;;;;;;7.25;7.25;;;;;;;;6299626;22;45812;-89
2021/10/24 14:46:55;;;;;;;;;5.75;5.75;;;;;;;;6194312;22;45844;-83
2021/10/24 14:49:21;;;;;;;;;7.00;6.00;;;;;;;;6171349;22;47223;-82
2021/10/24 14:57:38;;;;;;;;;9.00;7.00;;;;;;;;6169457;23;45998;-82
2021/10/24 15:00:04;;;;;;;;;6.00;4.00;;;;;;;;6140102;23;48033;-82
2021/10/24 15:02:32;;;;;;;;;3.25;3.25;;;;;;;;6170797;23;45915;-85
2021/10/24 15:08:32;;;;;;;;;6.25;6.25;;;;;;;;6047365;23;45380;-83
2021/10/24 15:11:00;;;;;;;;;6.00;6.00;;;;;;;;5906114;24;47332;-86
2021/10/24 15:13:25;;;;;;;;;7.00;7.00;;;;;;;;5906267;24;46037;-85
2021/10/24 15:16:08;;;;;;;;;6.00;6.00;;;;;;;;5908283;24;45529;-86
2021/10/24 15:55:29;;;;;;;;;8.00;6.00;;;;;;;;6315496;22;45600;-78
2021/10/24 15:58:00;;;;;;;;;6.50;6.25;;;;;;;;6293240;22;45493;-79
2021/10/24 16:07:19;;;;;;;;;6.00;6.00;;;;;;;;6084449;23;45457;-81
2021/10/24 16:13:20;;;;;;;;;6.75;6.00;;;;;;;;6023360;23;45869;-77
2021/10/24 16:18:20;;;;;;;;;10.25;9.50;;;;;;;;6256382;22;45494;-77
2021/10/24 16:20:46;;;;;;;;;8.50;7.75;;;;;;;;6260187;22;45399;-76
2021/10/24 16:23:15;;;;;;;;;13.50;12.25;;;;;;;;6261187;22;45475;-76
2021/10/24 16:25:41;;;;;;;;;9.50;8.00;;;;;;;;6258692;22;46142;-78
2021/10/24 16:28:06;;;;;;;;;8.50;7.00;;;;;;;;6233879;22;45709;-77
2021/10/24 16:30:32;;;;;;;;;8.75;8.00;;;;;;;;6237546;22;45482;-76
2021/10/24 16:32:57;;;;;;;;;12.00;7.50;;;;;;;;6260219;22;45567;-74
2021/10/24 16:35:23;;;;;;;;;8.00;8.00;;;;;;;;6260629;22;45540;-76
2021/10/24 16:50:44;;;;;;;;;9.00;8.00;;;;;;;;6303168;22;45359;-77
2021/10/24 16:53:51;;;;;;;;;;;;;;;;;;;;;
2021/10/24 17:04:22;;;;;;;;;13.25;9.00;;;;;;;;6261720;22;45536;-75
2021/10/24 17:06:48;;;;;;;;;13.25;11.50;;;;;;;;6263818;22;45509;-75
2021/10/24 17:09:14;;;;;;;;;16.50;12.25;;;;;;;;6263503;22;45517;-74
2021/10/24 17:11:40;;;;;;;;;11.50;9.50;;;;;;;;6265007;22;46115;-76
2021/10/24 17:14:15;;;;;;;;;13.00;9.25;;;;;;;;6262870;22;45359;-77
2021/10/24 17:16:41;;;;;;;;;9.25;9.25;;;;;;;;6247335;22;47036;-77
2021/10/24 17:19:06;;;;;;;;;10.75;8.00;;;;;;;;6264623;22;45655;-77
2021/10/24 17:21:31;;;;;;;;;11.00;9.00;;;;;;;;6265040;22;45482;-78
2021/10/24 17:24:00;;;;;;;;;9.00;9.00;;;;;;;;6265060;22;46124;-77
2021/10/24 17:26:36;;;;;;;;;;;;;;;;;;;;;
2021/10/24 17:29:04;;;;;;;;;12.00;10.25;;;;;;;;6286283;22;73550;-77
2021/10/24 17:31:30;;;;;;;;;11.75;10.25;;;;;;;;6286265;22;45445;-77
2021/10/24 17:33:58;;;;;;;;;15.25;13.00;;;;;;;;6271147;22;44905;-77
2021/10/24 17:36:24;;;;;;;;;16.25;12.75;;;;;;;;6262891;22;45694;-77
2021/10/24 17:38:51;;;;;;;;;16.50;14.50;;;;;;;;6272741;22;45457;-77
2021/10/24 17:41:16;;;;;;;;;15.25;12.00;;;;;;;;6262241;22;45518;-77
2021/10/24 17:43:42;;;;;;;;;18.67;13.67;;;;;;;;6262971;22;45521;-77
2021/10/24 17:46:07;;;;;;;;;17.25;15.25;;;;;;;;6263999;22;45434;-76
2021/10/24 17:48:33;;;;;;;;;17.00;13.50;;;;;;;;6270269;22;45482;-77
2021/10/24 17:56:20;;;;;;;;;55.75;36.25;;;;;;;;6301972;22;45647;-78
2021/10/24 17:58:54;;;;;;;;;64.00;47.50;;;;;;;;6326669;22;46697;-77
2021/10/24 18:12:18;;;;;;;;;;;;;;;;;;;;;
2021/10/24 19:07:39;;;;;;;;;65.50;51.25;;;;;;;;6081269;23;45416;-78
2021/10/24 19:10:29;;;;;;;;;65.00;50.75;;;;;;;;6184737;22;45468;-78
2021/10/24 19:16:41;;;;;;;;;58.50;46.75;;;;;;;;6181033;22;45456;-80
2021/10/24 19:19:06;;;;;;;;;68.25;47.50;;;;;;;;6193938;22;45412;-80
2021/10/24 19:21:32;;;;;;;;;59.00;45.00;;;;;;;;6197611;22;45667;-78
2021/10/24 19:23:57;;;;;;;;;54.75;45.75;;;;;;;;6196835;22;46089;-80
2021/10/24 19:26:22;;;;;;;;;61.00;47.75;;;;;;;;6199438;22;45359;-78
2021/10/24 19:28:48;;;;;;;;;56.00;46.33;;;;;;;;6196438;22;45421;-78
2021/10/24 19:31:19;;;;;;;;;64.33;48.33;;;;;;;;6200350;22;45402;-79
2021/10/24 19:33:44;;;;;;;;;65.00;47.25;;;;;;;;6173108;22;47043;-78
2021/10/24 19:36:10;;;;;;;;;61.00;47.50;;;;;;;;6197891;22;45360;-78
2021/10/24 19:38:36;;;;;;;;;57.75;43.50;;;;;;;;6201660;22;45478;-79
2021/10/24 19:42:06;;;;;;;;;59.00;48.25;;;;;;;;6171764;22;45499;-78
2021/10/24 19:44:38;;;;;;;;;60.75;48.25;;;;;;;;6064887;23;45627;-78
2021/10/24 19:47:30;;;;;;;;;55.75;45.75;;;;;;;;6102731;23;45383;-80
2021/10/24 19:49:55;;;;;;;;;58.50;47.50;;;;;;;;6075999;23;45302;-79
2021/10/24 19:52:26;;;;;;;;;57.00;43.75;;;;;;;;6110785;23;45567;-79
2021/10/24 19:54:55;;;;;;;;;51.50;44.50;;;;;;;;6134288;23;45317;-78
2021/10/24 19:57:20;;;;;;;;;62.75;47.75;;;;;;;;6139090;23;45649;-78
2021/10/24 19:59:51;;;;;;;;;61.33;47.67;;;;;;;;6139235;23;45505;-79
2021/10/24 20:02:20;;;;;;;;;61.25;48.25;;;;;;;;6139381;23;45340;-78
2021/10/24 20:04:45;;;;;;;;;64.25;48.25;;;;;;;;6139320;23;45718;-78
2021/10/24 20:07:11;;;;;;;;;60.50;46.50;;;;;;;;6141386;23;45564;-79
2021/10/24 20:09:36;;;;;;;;;65.50;49.25;;;;;;;;6138248;23;45602;-78
2021/10/24 20:12:02;;;;;;;;;62.50;47.25;;;;;;;;6139314;23;45541;-78
2021/10/24 20:14:27;;;;;;;;;60.25;48.75;;;;;;;;6140491;23;46977;-78
2021/10/24 20:16:52;;;;;;;;;59.67;47.67;;;;;;;;6139874;23;45447;-77
2021/10/24 20:19:18;;;;;;;;;63.67;47.00;;;;;;;;6140223;23;45303;-77
2021/10/24 20:21:43;;;;;;;;;62.00;45.00;;;;;;;;6245072;22;45355;-78
2021/10/24 20:24:46;;;;;;;;;;;;;;;;;;;;;
2021/10/24 20:27:12;;;;;;;;;66.25;48.25;;;;;;;;6263114;22;71959;-78
2021/10/24 20:29:40;;;;;;;;;65.67;52.00;;;;;;;;6235740;22;45607;-78
2021/10/24 20:32:06;;;;;;;;;61.00;47.75;;;;;;;;6264721;22;45451;-77
2021/10/24 20:34:32;;;;;;;;;64.50;51.50;;;;;;;;6263587;22;46474;-77
2021/10/24 20:36:58;;;;;;;;;63.75;47.75;;;;;;;;6268319;22;45296;-77
2021/10/24 20:39:23;;;;;;;;;65.25;47.25;;;;;;;;6264193;22;45254;-77
2021/10/24 20:41:48;;;;;;;;;66.25;50.25;;;;;;;;6264565;22;45833;-77
2021/10/24 20:44:14;;;;;;;;;65.25;51.75;;;;;;;;6261823;22;46035;-77
2021/10/24 20:46:41;;;;;;;;;63.50;51.50;;;;;;;;6264516;22;45536;-77
2021/10/24 20:49:06;;;;;;;;;64.25;49.00;;;;;;;;6265921;22;45433;-77
2021/10/24 20:52:02;;;;;;;;;71.75;52.00;;;;;;;;6264247;22;45351;-77
2021/10/24 20:54:28;;;;;;;;;62.25;48.75;;;;;;;;6127642;23;45553;-79
2021/10/24 20:56:54;;;;;;;;;66.50;49.25;;;;;;;;6141578;23;45414;-77
2021/10/24 20:59:19;;;;;;;;;69.00;48.50;;;;;;;;6137978;23;45378;-78
2021/10/24 21:01:44;;;;;;;;;60.00;47.67;;;;;;;;6135663;23;45392;-79
2021/10/24 21:04:10;;;;;;;;;58.75;44.25;;;;;;;;6139733;23;46915;-78
2021/10/24 21:06:36;;;;;;;;;51.50;40.50;;;;;;;;6139052;23;45449;-78
2021/10/24 21:09:02;;;;;;;;;61.50;43.75;;;;;;;;6111959;23;45714;-77
2021/10/24 21:11:27;;;;;;;;;59.50;44.75;;;;;;;;6137451;23;45758;-77
2021/10/24 21:13:52;;;;;;;;;56.25;43.75;;;;;;;;6139881;23;46192;-77
2021/10/24 21:16:47;;;;;;;;;50.00;41.25;;;;;;;;6145354;23;45551;-79
2021/10/24 21:22:15;;;;;;;;;60.00;43.00;;;;;;;;6153751;23;45450;-77
2021/10/24 21:24:40;;;;;;;;;49.67;41.33;;;;;;;;6138271;23;46522;-77
2021/10/24 21:34:51;;;;;;;;;53.00;40.75;;;;;;;;6296831;22;46123;-89
2021/10/24 21:37:16;;;;;;;;;50.67;44.00;;;;;;;;6272097;22;45447;-89
2021/10/24 21:39:41;;;;;;;;;50.00;41.00;;;;;;;;6272828;22;45406;-89
2021/10/24 21:42:07;;;;;;;;;52.00;40.00;;;;;;;;6278483;22;45398;-89
2021/10/24 21:44:32;;;;;;;;;61.00;43.00;;;;;;;;6277589;22;47325;-89
2021/10/24 21:49:31;;;;;;;;;46.00;39.75;;;;;;;;6265448;22;45930;-77
2021/10/24 21:51:56;;;;;;;;;58.00;42.33;;;;;;;;6265798;22;45511;-77
2021/10/24 22:12:35;;;;;;;;;44.75;38.00;;;;;;;;5940205;23;45525;-76
2021/10/24 22:15:01;;;;;;;;;54.75;41.75;;;;;;;;6137273;22;45609;-77
2021/10/24 22:17:28;;;;;;;;;48.75;41.50;;;;;;;;6262793;22;45626;-77
2021/10/24 22:19:53;;;;;;;;;60.75;42.25;;;;;;;;6262959;22;45780;-78
2021/10/24 22:22:18;;;;;;;;;46.75;40.25;;;;;;;;6263300;22;45453;-78
2021/10/24 22:32:43;;;;;;;;;47.50;40.75;;;;;;;;6290805;22;45851;-76
2021/10/24 22:35:37;;;;;;;;;43.00;38.00;;;;;;;;6262298;22;45363;-76
2021/10/24 22:45:48;;;;;;;;;46.75;40.25;;;;;;;;6285385;22;46309;-78
2021/10/24 22:51:16;;;;;;;;;49.75;42.25;;;;;;;;6297535;22;45348;-77
2021/10/24 22:53:41;;;;;;;;;52.00;41.67;;;;;;;;6297578;22;45311;-77
2021/10/24 23:08:26;;;;;;;;;45.50;40.75;;;;;;;;6056992;23;45420;-80
2021/10/24 23:10:51;;;;;;;;;50.75;41.25;;;;;;;;6051423;23;45839;-78
2021/10/24 23:13:17;;;;;;;;;48.00;41.67;;;;;;;;6052629;23;45666;-78
2021/10/24 23:15:42;;;;;;;;;45.50;38.25;;;;;;;;6051303;23;45343;-78
2021/10/24 23:18:08;;;;;;;;;38.25;37.75;;;;;;;;6053294;23;45790;-78
2021/10/24 23:21:03;;;;;;;;;42.25;37.25;;;;;;;;6051278;23;46417;-78
2021/10/24 23:23:34;;;;;;;;;49.50;41.50;;;;;;;;6050943;23;45452;-76
2021/10/24 23:31:18;;;;;;;;;47.75;36.75;;;;;;;;6267080;22;46198;-89
2021/10/24 23:34:05;;;;;;;;;39.00;34.00;;;;;;;;6280470;22;45861;-77
2021/10/24 23:49:19;;;;;;;;;32.75;32.00;;;;;;;;6296414;22;45862;-78
2021/10/24 23:51:45;;;;;;;;;41.00;35.67;;;;;;;;6296026;22;46142;-76
2021/10/24 23:54:10;;;;;;;;;48.75;35.75;;;;;;;;6299016;22;45416;-77
2021/10/24 23:56:36;;;;;;;;;48.50;38.50;;;;;;;;6297555;22;45582;-78
2021/10/24 23:59:01;;;;;;;;;33.50;31.00;;;;;;;;6294481;22;45469;-77
